Time;durP1;ratioP1;P1;durP2;ratioP2;P2;SDS_P1;SDS_P2;PMS_P1;PMS_P2;Temp;Humidity;BMP_temperature;BMP_pressure;BME280_temperature;BME280_humidity;BME280_pressure;Samples;Min_cycle;Max_cycle;Signal;HPM_P1;HPM_P2
2022/07/23 00:02:07;;;;;;;7.57;2.00;;;15.40;99.90;;;;;;4994341;28;20037;-59
2022/07/23 00:04:34;;;;;;;2.13;1.23;;;15.50;99.90;;;;;;4995744;28;20026;-59
2022/07/23 00:07:00;;;;;;;8.13;2.17;;;15.50;99.90;;;;;;4989976;28;20077;-58
2022/07/23 00:09:26;;;;;;;4.35;1.80;;;15.50;99.90;;;;;;4989079;28;20028;-58
2022/07/23 00:11:52;;;;;;;3.75;1.80;;;15.40;99.90;;;;;;4996735;28;20041;-60
2022/07/23 00:14:18;;;;;;;6.65;2.75;;;15.40;99.90;;;;;;4991180;28;20038;-59
2022/07/23 00:16:44;;;;;;;5.45;1.58;;;15.50;99.90;;;;;;4989854;28;20026;-59
2022/07/23 00:19:10;;;;;;;4.57;2.22;;;15.50;99.90;;;;;;4996866;28;20466;-59
2022/07/23 00:21:36;;;;;;;6.15;1.83;;;15.40;99.90;;;;;;4989461;28;20038;-59
2022/07/23 00:24:02;;;;;;;5.20;1.60;;;15.40;99.90;;;;;;4992993;28;20019;-59
2022/07/23 00:26:28;;;;;;;4.10;1.70;;;15.30;99.90;;;;;;4996285;28;20386;-59
2022/07/23 00:28:54;;;;;;;7.38;2.00;;;15.20;99.90;;;;;;4997078;28;20032;-58
2022/07/23 00:31:20;;;;;;;3.78;1.85;;;15.20;99.90;;;;;;5003378;28;20150;-58
2022/07/23 00:33:45;;;;;;;3.08;1.88;;;15.20;99.90;;;;;;4991384;28;20085;-58
2022/07/23 00:36:11;;;;;;;3.45;1.73;;;15.20;99.90;;;;;;4992891;28;20030;-58
2022/07/23 00:38:37;;;;;;;4.20;1.90;;;15.20;99.90;;;;;;4992316;28;20113;-58
2022/07/23 00:41:02;;;;;;;5.90;1.80;;;15.40;99.90;;;;;;4995136;28;20041;-58
2022/07/23 00:43:28;;;;;;;3.83;1.70;;;15.50;99.90;;;;;;4992339;28;20069;-58
2022/07/23 00:45:54;;;;;;;2.65;1.80;;;15.60;99.90;;;;;;4997933;28;20037;-58
2022/07/23 00:48:20;;;;;;;3.97;1.60;;;15.80;99.90;;;;;;5000697;28;20026;-58
2022/07/23 00:50:46;;;;;;;4.38;1.83;;;15.80;99.90;;;;;;5005641;28;20406;-57
2022/07/23 00:53:12;;;;;;;4.47;1.58;;;16.00;99.90;;;;;;4995392;28;20512;-57
2022/07/23 00:55:39;;;;;;;9.38;2.50;;;16.10;99.90;;;;;;4994478;28;20050;-59
2022/07/23 00:58:04;;;;;;;5.85;2.50;;;16.10;99.90;;;;;;4992748;28;20011;-58
2022/07/23 01:00:30;;;;;;;4.53;1.83;;;16.20;99.90;;;;;;4996248;28;20470;-58
2022/07/23 01:02:56;;;;;;;2.97;1.77;;;16.30;99.90;;;;;;4991199;28;20096;-58
2022/07/23 01:05:22;;;;;;;4.65;1.88;;;16.40;99.90;;;;;;4997811;28;20072;-61
2022/07/23 01:07:50;;;;;;;3.30;1.60;;;16.40;99.90;;;;;;5006416;28;20501;-59
2022/07/23 01:10:31;;;;;;;7.05;2.08;;;16.40;99.90;;;;;;4992619;28;20022;-59
2022/07/23 01:13:01;;;;;;;4.45;1.90;;;16.40;99.90;;;;;;4991218;28;20049;-58
2022/07/23 01:15:28;;;;;;;3.90;1.95;;;16.40;99.90;;;;;;4997758;28;20022;-59
2022/07/23 01:17:54;;;;;;;4.30;1.83;;;16.40;99.90;;;;;;4998852;28;20030;-58
2022/07/23 01:20:20;;;;;;;3.85;1.83;;;16.30;99.90;;;;;;4994535;28;20092;-58
2022/07/23 01:22:46;;;;;;;6.47;2.03;;;16.30;99.90;;;;;;4988424;28;20034;-59
2022/07/23 01:25:12;;;;;;;5.50;2.33;;;16.30;99.90;;;;;;4990271;28;20015;-58
2022/07/23 01:27:37;;;;;;;5.93;2.10;;;16.20;99.90;;;;;;4987518;28;20041;-58
2022/07/23 01:30:04;;;;;;;4.93;2.10;;;16.20;99.90;;;;;;4991476;28;20031;-58
2022/07/23 01:32:29;;;;;;;5.35;2.13;;;16.10;99.90;;;;;;4985525;28;20038;-58
2022/07/23 01:34:56;;;;;;;5.60;2.17;;;16.20;99.90;;;;;;4993231;28;20088;-58
2022/07/23 01:37:21;;;;;;;4.53;2.10;;;16.10;99.90;;;;;;4990361;28;20050;-58
2022/07/23 01:39:47;;;;;;;3.33;2.10;;;16.10;99.90;;;;;;4991161;28;20538;-58
2022/07/23 01:42:13;;;;;;;6.90;2.55;;;16.10;99.90;;;;;;4991208;28;20485;-58
2022/07/23 01:44:38;;;;;;;4.00;2.50;;;16.10;99.90;;;;;;4988326;28;20045;-58
2022/07/23 01:47:04;;;;;;;4.85;2.20;;;16.20;99.90;;;;;;4987217;28;20077;-58
2022/07/23 01:49:30;;;;;;;5.47;1.80;;;16.20;99.90;;;;;;4990457;28;20120;-58
2022/07/23 01:52:02;;;;;;;6.03;2.25;;;16.20;99.90;;;;;;4992666;28;20117;-59
2022/07/23 01:54:31;;;;;;;4.82;2.13;;;16.20;99.90;;;;;;4989159;28;20029;-58
2022/07/23 01:56:58;;;;;;;4.82;2.20;;;16.20;99.90;;;;;;4987715;28;20497;-58
2022/07/23 01:59:24;;;;;;;5.85;2.22;;;16.30;99.90;;;;;;4985596;28;20040;-58
2022/07/23 02:01:50;;;;;;;3.25;1.77;;;16.20;99.90;;;;;;4992500;28;20092;-59
2022/07/23 02:04:25;;;;;;;4.82;2.20;;;16.30;99.90;;;;;;4995043;28;20026;-59
2022/07/23 02:06:52;;;;;;;4.93;1.92;;;16.30;99.90;;;;;;4995595;28;20038;-59
2022/07/23 02:09:18;;;;;;;6.60;2.33;;;16.40;99.90;;;;;;4992886;28;20530;-58
2022/07/23 02:11:44;;;;;;;2.28;1.98;;;16.40;99.90;;;;;;4999672;28;20402;-58
2022/07/23 02:14:10;;;;;;;4.70;2.33;;;16.40;99.90;;;;;;4992119;28;20037;-59
2022/07/23 02:16:35;;;;;;;7.30;2.13;;;16.40;99.90;;;;;;4987577;28;20038;-58
2022/07/23 02:19:03;;;;;;;8.77;2.20;;;16.40;99.90;;;;;;4989449;28;20027;-59
2022/07/23 02:21:29;;;;;;;8.30;2.42;;;16.40;99.90;;;;;;4992143;28;20486;-59
2022/07/23 02:23:54;;;;;;;5.05;1.98;;;16.30;99.90;;;;;;4993550;28;20033;-58
2022/07/23 02:26:20;;;;;;;3.85;2.13;;;16.30;99.90;;;;;;4991834;28;20092;-58
2022/07/23 02:28:46;;;;;;;6.18;2.22;;;16.30;99.90;;;;;;4989856;28;20421;-57
2022/07/23 02:31:12;;;;;;;2.47;1.80;;;16.30;99.90;;;;;;4992948;28;20095;-58
2022/07/23 02:33:38;;;;;;;5.22;2.25;;;16.30;99.90;;;;;;4993736;28;20034;-58
2022/07/23 02:36:04;;;;;;;5.25;2.20;;;16.30;99.90;;;;;;4992404;28;20034;-58
2022/07/23 02:38:30;;;;;;;4.40;2.10;;;16.30;99.90;;;;;;4995451;28;20022;-57
2022/07/23 02:40:56;;;;;;;5.38;2.00;;;16.30;99.90;;;;;;4994150;28;20045;-58
2022/07/23 02:43:22;;;;;;;2.75;1.95;;;16.30;99.90;;;;;;4990142;28;20029;-58
2022/07/23 02:45:47;;;;;;;9.05;2.45;;;16.30;99.90;;;;;;4993658;28;20030;-60
2022/07/23 02:48:13;;;;;;;5.80;1.60;;;16.30;99.90;;;;;;5005551;28;20024;-58
2022/07/23 02:50:39;;;;;;;4.57;2.08;;;16.30;99.90;;;;;;4990094;28;20042;-59
2022/07/23 02:53:05;;;;;;;4.80;2.20;;;16.30;99.90;;;;;;4991726;28;20501;-59
2022/07/23 02:55:31;;;;;;;4.00;1.98;;;16.30;99.90;;;;;;4989922;28;20042;-58
2022/07/23 02:57:56;;;;;;;4.20;1.90;;;16.30;99.90;;;;;;4994312;28;20026;-58
2022/07/23 03:00:22;;;;;;;5.57;1.92;;;16.30;99.90;;;;;;4994104;28;20025;-58
2022/07/23 03:02:48;;;;;;;3.15;1.73;;;16.30;99.90;;;;;;4990560;28;20034;-59
2022/07/23 03:05:13;;;;;;;4.82;2.13;;;16.30;99.90;;;;;;4992474;28;20018;-57
2022/07/23 03:07:39;;;;;;;4.47;2.13;;;16.30;99.90;;;;;;4996128;28;20061;-57
2022/07/23 03:10:05;;;;;;;5.57;2.15;;;16.30;99.90;;;;;;4987094;28;20118;-57
2022/07/23 03:12:31;;;;;;;5.88;2.03;;;16.30;99.90;;;;;;4990969;28;20038;-58
2022/07/23 03:14:57;;;;;;;5.05;2.25;;;16.40;99.90;;;;;;4990921;28;20037;-58
2022/07/23 03:17:23;;;;;;;4.28;2.15;;;16.30;99.90;;;;;;4995524;28;20104;-58
2022/07/23 03:19:49;;;;;;;3.30;1.92;;;16.30;99.90;;;;;;4990545;28;20113;-58
2022/07/23 03:22:15;;;;;;;4.13;1.90;;;16.30;99.90;;;;;;4990690;28;20134;-58
2022/07/23 03:24:56;;;;;;;4.00;2.20;;;16.30;99.90;;;;;;4997943;28;20490;-58
2022/07/23 03:27:23;;;;;;;8.63;2.30;;;16.30;99.90;;;;;;4991184;28;20030;-58
2022/07/23 03:29:50;;;;;;;5.00;1.77;;;16.30;99.90;;;;;;4990489;28;20475;-57
2022/07/23 03:32:16;;;;;;;4.82;2.05;;;16.40;99.90;;;;;;4990690;28;20041;-59
2022/07/23 03:34:42;;;;;;;8.48;2.55;;;16.30;99.90;;;;;;4989125;28;20035;-58
2022/07/23 03:37:07;;;;;;;5.47;2.00;;;16.30;99.90;;;;;;4993519;28;20475;-57
2022/07/23 03:39:33;;;;;;;3.50;1.90;;;16.30;99.90;;;;;;4996747;28;20065;-59
2022/07/23 03:41:59;;;;;;;5.43;2.50;;;16.20;99.90;;;;;;5005865;22;20088;-58
2022/07/23 03:44:28;;;;;;;3.70;2.40;;;16.20;99.90;;;;;;4991948;28;20502;-59
2022/07/23 03:46:54;;;;;;;5.65;2.38;;;16.20;99.90;;;;;;4994824;28;20061;-59
2022/07/23 03:49:20;;;;;;;4.10;2.15;;;16.20;99.90;;;;;;4999119;28;20116;-58
2022/07/23 03:51:46;;;;;;;5.68;2.88;;;16.20;99.90;;;;;;4988464;28;20066;-59
2022/07/23 03:54:11;;;;;;;6.38;2.33;;;16.10;99.90;;;;;;4992601;28;20441;-58
2022/07/23 03:56:37;;;;;;;6.72;2.60;;;16.10;99.90;;;;;;4993861;28;20038;-58
2022/07/23 03:59:03;;;;;;;7.60;2.08;;;16.00;99.90;;;;;;4996909;28;20022;-58
2022/07/23 04:01:29;;;;;;;5.25;2.20;;;16.00;99.90;;;;;;5014718;28;20049;-58
2022/07/23 04:03:55;;;;;;;4.20;1.88;;;15.90;99.90;;;;;;4992236;28;20479;-57
2022/07/23 04:06:21;;;;;;;4.20;2.10;;;15.80;99.90;;;;;;4999181;28;20030;-58
2022/07/23 04:08:47;;;;;;;4.25;2.13;;;15.80;99.90;;;;;;4984705;28;20026;-58
2022/07/23 04:11:12;;;;;;;3.40;1.80;;;15.70;99.90;;;;;;4999380;28;20026;-59
2022/07/23 04:13:38;;;;;;;2.88;2.30;;;15.70;99.90;;;;;;4988126;28;20122;-58
2022/07/23 04:16:04;;;;;;;4.82;2.38;;;15.70;99.90;;;;;;4996461;28;20030;-58
2022/07/23 04:18:30;;;;;;;6.03;2.00;;;15.60;99.90;;;;;;4996310;28;20379;-59
2022/07/23 04:20:56;;;;;;;7.40;2.58;;;15.50;99.90;;;;;;4996599;28;20062;-59
2022/07/23 04:23:22;;;;;;;6.18;2.22;;;15.40;99.90;;;;;;4997024;28;20073;-59
2022/07/23 04:25:47;;;;;;;2.63;1.95;;;15.30;99.90;;;;;;5000313;28;20039;-59
2022/07/23 04:28:13;;;;;;;5.68;2.53;;;15.30;99.90;;;;;;5001282;28;20020;-59
2022/07/23 04:30:39;;;;;;;5.95;2.55;;;15.20;99.90;;;;;;4995087;28;20041;-59
2022/07/23 04:33:06;;;;;;;5.10;2.50;;;15.20;99.90;;;;;;5001917;28;20438;-59
2022/07/23 04:35:36;;;;;;;4.55;2.25;;;15.20;99.90;;;;;;4999822;28;20081;-59
2022/07/23 04:38:03;;;;;;;7.70;2.90;;;15.10;99.90;;;;;;4996942;28;20382;-59
2022/07/23 04:40:29;;;;;;;5.32;2.85;;;15.20;99.90;;;;;;4991329;28;20084;-59
2022/07/23 04:42:55;;;;;;;6.97;2.63;;;15.20;99.90;;;;;;4999228;28;20045;-58
2022/07/23 04:45:23;;;;;;;6.40;2.63;;;15.20;99.90;;;;;;4991373;28;20030;-60
2022/07/23 04:47:49;;;;;;;5.72;2.92;;;15.20;99.90;;;;;;4988919;28;20474;-58
2022/07/23 04:50:18;;;;;;;5.20;2.42;;;15.20;99.90;;;;;;5003026;28;20108;-58
2022/07/23 04:52:44;;;;;;;9.63;2.55;;;15.20;99.90;;;;;;5001133;28;20383;-58
2022/07/23 04:55:10;;;;;;;3.30;2.40;;;15.20;99.90;;;;;;4994240;28;20422;-58
2022/07/23 04:57:36;;;;;;;5.20;2.65;;;15.30;99.90;;;;;;4990955;28;20434;-60
2022/07/23 05:00:03;;;;;;;6.38;2.50;;;15.30;99.90;;;;;;4986370;28;20475;-59
2022/07/23 05:02:29;;;;;;;4.97;2.20;;;15.30;99.90;;;;;;4990439;28;20446;-59
2022/07/23 05:04:54;;;;;;;4.72;2.00;;;15.30;99.90;;;;;;5001091;28;20026;-59
2022/07/23 05:07:20;;;;;;;5.22;2.03;;;15.20;99.90;;;;;;5006421;28;20057;-58
2022/07/23 05:09:46;;;;;;;6.30;2.35;;;15.20;99.90;;;;;;4994265;28;20474;-59
2022/07/23 05:12:11;;;;;;;6.15;1.90;;;15.20;99.90;;;;;;4993755;28;20069;-58
2022/07/23 05:14:37;;;;;;;7.95;2.55;;;15.20;99.90;;;;;;4997181;28;20031;-58
2022/07/23 05:17:03;;;;;;;7.75;2.90;;;15.30;99.90;;;;;;5001806;28;20034;-60
2022/07/23 05:19:29;;;;;;;8.13;3.15;;;15.30;99.90;;;;;;4997105;28;20040;-59
2022/07/23 05:21:54;;;;;;;5.45;2.90;;;15.40;99.90;;;;;;4994816;28;20065;-59
2022/07/23 05:24:20;;;;;;;3.15;2.85;;;15.30;99.90;;;;;;4997297;28;20026;-59
2022/07/23 05:26:46;;;;;;;8.10;2.95;;;15.40;99.90;;;;;;4996444;28;20092;-59
2022/07/23 05:29:11;;;;;;;5.68;2.10;;;15.50;99.90;;;;;;4993621;28;20038;-59
2022/07/23 05:31:37;;;;;;;6.63;2.67;;;15.50;99.90;;;;;;4993618;28;20038;-59
2022/07/23 05:34:03;;;;;;;4.20;2.70;;;15.50;99.90;;;;;;4992632;28;20096;-59
2022/07/23 05:36:31;;;;;;;6.90;3.45;;;15.50;99.90;;;;;;4997753;28;20049;-59
2022/07/23 05:38:57;;;;;;;7.70;2.80;;;15.60;99.90;;;;;;4999921;28;20026;-59
2022/07/23 05:41:22;;;;;;;6.47;2.70;;;15.60;99.90;;;;;;4990078;28;20333;-58
2022/07/23 05:43:48;;;;;;;5.82;3.40;;;15.60;99.90;;;;;;5004239;28;20038;-60
2022/07/23 05:46:14;;;;;;;5.80;2.65;;;15.60;99.90;;;;;;4989283;28;20084;-59
2022/07/23 05:48:41;;;;;;;4.65;3.10;;;15.70;99.90;;;;;;4990977;28;20038;-59
2022/07/23 05:51:07;;;;;;;12.25;3.75;;;15.70;99.90;;;;;;4994446;28;20038;-59
2022/07/23 05:53:33;;;;;;;6.63;3.28;;;15.70;99.90;;;;;;4991266;28;20072;-59
2022/07/23 05:55:59;;;;;;;5.68;3.20;;;15.70;99.90;;;;;;4996322;28;20045;-59
2022/07/23 05:58:25;;;;;;;6.80;3.25;;;15.70;99.90;;;;;;4996244;28;20490;-59
2022/07/23 06:01:03;;;;;;;7.03;3.83;;;15.60;99.90;;;;;;5006369;28;20153;-66
2022/07/23 06:03:29;;;;;;;6.50;3.03;;;15.80;99.90;;;;;;4999181;28;20088;-59
2022/07/23 06:05:55;;;;;;;4.70;2.65;;;15.90;99.90;;;;;;5001514;28;20053;-58
2022/07/23 06:08:20;;;;;;;7.95;3.17;;;16.00;99.90;;;;;;5002652;28;20100;-59
2022/07/23 06:10:47;;;;;;;5.68;3.08;;;16.00;99.90;;;;;;4994996;28;20138;-58
2022/07/23 06:13:12;;;;;;;9.52;3.20;;;16.00;99.90;;;;;;4992703;28;20025;-59
2022/07/23 06:15:38;;;;;;;8.27;3.22;;;16.00;99.90;;;;;;4999934;28;20486;-58
2022/07/23 06:18:04;;;;;;;5.53;3.47;;;16.00;99.90;;;;;;4997732;28;20053;-58
2022/07/23 06:20:30;;;;;;;8.63;3.22;;;16.00;99.90;;;;;;4995379;28;20026;-59
2022/07/23 06:22:55;;;;;;;10.02;3.00;;;16.00;99.90;;;;;;4998306;28;20474;-59
2022/07/23 06:25:21;;;;;;;11.07;3.40;;;16.10;99.90;;;;;;5001129;28;20509;-60
2022/07/23 06:27:48;;;;;;;5.05;3.38;;;16.20;99.90;;;;;;4992059;28;20037;-59
2022/07/23 06:30:15;;;;;;;8.88;3.20;;;16.10;99.90;;;;;;5001158;28;20018;-60
2022/07/23 06:32:41;;;;;;;9.90;3.28;;;16.20;99.90;;;;;;4994116;28;20045;-59
2022/07/23 06:35:08;;;;;;;6.60;3.05;;;16.30;99.90;;;;;;4993415;28;20018;-58
2022/07/23 06:37:33;;;;;;;7.95;3.47;;;16.30;99.90;;;;;;4994649;28;20386;-59
2022/07/23 06:39:59;;;;;;;7.95;4.07;;;16.30;99.90;;;;;;4983801;28;20014;-58
2022/07/23 06:42:25;;;;;;;6.45;2.83;;;16.40;99.90;;;;;;4987361;28;20132;-58
2022/07/23 06:44:50;;;;;;;5.38;3.75;;;16.40;99.90;;;;;;4995212;28;20499;-60
2022/07/23 06:47:16;;;;;;;7.10;3.75;;;16.50;99.90;;;;;;4994111;28;20538;-60
2022/07/23 06:49:42;;;;;;;9.00;3.33;;;16.50;99.90;;;;;;4992416;28;20375;-60
2022/07/23 06:52:08;;;;;;;5.32;3.15;;;16.50;99.90;;;;;;4996998;28;20133;-58
2022/07/23 06:54:34;;;;;;;7.95;3.15;;;16.60;99.90;;;;;;4992226;28;20059;-58
2022/07/23 06:57:00;;;;;;;9.18;3.25;;;16.70;99.90;;;;;;4996957;28;20038;-59
2022/07/23 06:59:25;;;;;;;6.38;3.67;;;16.70;99.90;;;;;;4990911;28;20073;-59
2022/07/23 07:01:51;;;;;;;6.35;3.20;;;16.80;99.90;;;;;;4991730;28;20041;-59
2022/07/23 07:04:17;;;;;;;5.63;3.22;;;16.80;99.90;;;;;;4992286;28;20032;-59
2022/07/23 07:06:42;;;;;;;9.43;3.45;;;16.80;99.90;;;;;;4984437;28;20466;-59
2022/07/23 07:09:08;;;;;;;6.35;3.47;;;16.90;99.90;;;;;;4991407;28;20082;-59
2022/07/23 07:11:34;;;;;;;6.95;3.08;;;16.90;99.90;;;;;;4992447;28;20041;-59
2022/07/23 07:14:00;;;;;;;6.30;3.60;;;17.00;99.90;;;;;;5000519;28;20089;-60
2022/07/23 07:16:26;;;;;;;5.88;2.80;;;17.00;99.90;;;;;;4999556;28;20026;-59
2022/07/23 07:18:52;;;;;;;6.70;2.80;;;17.20;99.90;;;;;;4995586;28;20018;-60
2022/07/23 07:21:18;;;;;;;4.80;3.30;;;17.20;99.90;;;;;;4987709;28;20026;-59
2022/07/23 07:23:43;;;;;;;6.95;3.40;;;17.30;99.90;;;;;;4987251;28;20046;-59
2022/07/23 07:26:10;;;;;;;6.00;3.17;;;17.40;99.90;;;;;;4997740;28;20490;-59
2022/07/23 07:28:36;;;;;;;9.50;3.45;;;17.50;99.90;;;;;;4985526;28;20026;-58
2022/07/23 07:31:01;;;;;;;8.73;2.88;;;17.60;99.90;;;;;;4992242;28;20084;-60
2022/07/23 07:33:27;;;;;;;6.22;2.97;;;17.80;99.90;;;;;;4982638;28;20161;-58
2022/07/23 07:35:53;;;;;;;9.35;3.58;;;17.90;99.90;;;;;;4987851;28;20022;-59
2022/07/23 07:38:19;;;;;;;9.80;2.90;;;18.00;99.90;;;;;;4990596;28;20057;-58
2022/07/23 07:40:44;;;;;;;8.05;2.70;;;18.10;99.90;;;;;;4981792;28;20034;-58
2022/07/23 07:43:10;;;;;;;11.45;2.92;;;18.20;99.90;;;;;;4989851;28;20465;-59
2022/07/23 07:45:36;;;;;;;9.27;2.83;;;18.40;99.90;;;;;;4980869;28;20088;-58
2022/07/23 07:48:02;;;;;;;5.57;2.78;;;18.50;99.90;;;;;;4995124;28;20513;-58
2022/07/23 07:50:28;;;;;;;8.68;2.83;;;18.70;99.90;;;;;;4982974;28;20086;-61
2022/07/23 07:52:53;;;;;;;7.05;3.42;;;18.80;99.90;;;;;;4992993;28;20030;-58
2022/07/23 07:55:19;;;;;;;7.60;3.00;;;19.00;99.90;;;;;;4989111;28;20027;-59
2022/07/23 07:57:45;;;;;;;5.72;2.65;;;19.20;99.90;;;;;;4991388;28;20080;-58
2022/07/23 08:00:12;;;;;;;7.82;2.67;;;19.30;99.90;;;;;;4990371;28;20041;-58
2022/07/23 08:02:52;;;;;;;4.70;2.20;;;19.50;99.90;;;;;;4987989;28;20052;-59
2022/07/23 08:05:26;;;;;;;7.75;2.80;;;19.80;99.90;;;;;;4986109;28;20030;-59
2022/07/23 08:07:52;;;;;;;3.90;2.33;;;20.10;99.90;;;;;;4991932;28;20022;-60
2022/07/23 08:10:18;;;;;;;5.57;2.97;;;20.40;99.90;;;;;;4989052;28;20113;-60
2022/07/23 08:12:49;;;;;;;5.00;2.17;;;20.60;99.90;;;;;;4989422;28;20049;-59
2022/07/23 08:15:17;;;;;;;7.38;2.03;;;20.70;99.90;;;;;;4986252;28;20018;-58
2022/07/23 08:17:44;;;;;;;4.95;2.28;;;20.90;99.90;;;;;;4991361;28;20069;-59
2022/07/23 08:20:12;;;;;;;7.13;2.00;;;21.10;99.90;;;;;;4989109;28;20109;-60
2022/07/23 08:22:51;;;;;;;3.95;2.05;;;21.30;99.90;;;;;;4996235;28;20034;-59
2022/07/23 08:25:27;;;;;;;6.80;2.42;;;21.40;99.90;;;;;;4998361;28;20478;-59
2022/07/23 08:27:53;;;;;;;5.03;2.38;;;21.30;99.90;;;;;;4989626;28;20027;-60
2022/07/23 08:30:22;;;;;;;8.60;2.30;;;21.30;99.90;;;;;;4995417;28;20029;-60
2022/07/23 08:33:00;;;;;;;6.43;2.17;;;21.30;99.90;;;;;;4991860;28;20149;-58
2022/07/23 08:35:29;;;;;;;4.03;2.50;;;21.30;99.90;;;;;;4982007;28;20023;-60
2022/07/23 08:37:56;;;;;;;5.70;2.40;;;21.60;99.90;;;;;;4993284;28;20033;-60
2022/07/23 08:40:31;;;;;;;6.13;2.60;;;21.80;99.90;;;;;;4995801;28;20026;-59
2022/07/23 08:42:57;;;;;;;5.93;2.08;;;21.90;99.90;;;;;;4990707;28;20042;-60
2022/07/23 08:45:24;;;;;;;7.85;2.35;;;21.80;99.90;;;;;;4989776;28;20029;-59
2022/07/23 08:48:02;;;;;;;5.88;2.28;;;21.80;99.90;;;;;;4992617;28;20041;-58
2022/07/23 08:50:30;;;;;;;5.50;2.65;;;22.00;99.90;;;;;;4988005;28;20032;-59
2022/07/23 08:52:57;;;;;;;12.52;3.15;;;22.10;99.90;;;;;;5001595;28;20043;-59
2022/07/23 08:55:24;;;;;;;10.13;3.58;;;22.20;99.90;;;;;;4999119;28;20479;-60
2022/07/23 08:57:53;;;;;;;8.85;2.60;;;22.50;99.90;;;;;;4996122;28;20022;-60
2022/07/23 09:00:20;;;;;;;6.63;2.22;;;22.70;99.90;;;;;;4991614;28;20022;-61
2022/07/23 09:02:47;;;;;;;10.00;3.17;;;22.50;99.90;;;;;;4997565;28;20124;-59
2022/07/23 09:05:14;;;;;;;6.63;3.03;;;22.30;99.90;;;;;;4997458;28;20030;-60
2022/07/23 09:08:12;;;;;;;8.63;2.60;;;22.20;99.90;;;;;;4996185;28;20058;-59
2022/07/23 09:11:03;;;;;;;6.95;2.50;;;21.80;99.90;;;;;;4992046;28;20022;-60
2022/07/23 09:13:33;;;;;;;5.57;2.33;;;21.70;99.90;;;;;;4987723;28;20465;-59
2022/07/23 09:16:04;;;;;;;7.05;2.72;;;21.70;99.90;;;;;;4997896;28;20031;-59
2022/07/23 09:18:41;;;;;;;7.93;2.37;;;21.70;99.90;;;;;;4979561;28;20027;-59
2022/07/23 09:21:18;;;;;;;10.15;2.70;;;21.70;99.90;;;;;;4992330;28;20030;-60
2022/07/23 09:23:58;;;;;;;3.80;1.90;;;21.70;99.90;;;;;;4987858;28;20109;-59
2022/07/23 09:26:31;;;;;;;9.98;2.40;;;21.70;99.90;;;;;;4985447;28;20035;-58
2022/07/23 09:29:10;;;;;;;10.48;3.28;;;21.70;99.90;;;;;;4982755;28;20073;-59
2022/07/23 09:31:58;;;;;;;6.10;2.10;;;21.80;99.90;;;;;;4991957;28;20053;-59
2022/07/23 09:34:30;;;;;;;3.70;1.83;;;21.80;99.90;;;;;;4988766;28;20414;-59
2022/07/23 09:37:13;;;;;;;7.82;2.00;;;21.70;99.90;;;;;;4991648;28;20022;-60
2022/07/23 09:39:38;;;;;;;3.88;1.70;;;21.70;99.90;;;;;;5000727;28;20027;-60
2022/07/23 09:42:24;;;;;;;7.88;2.53;;;21.60;99.90;;;;;;4992819;28;20050;-60
2022/07/23 09:44:52;;;;;;;5.88;1.77;;;21.60;99.90;;;;;;4994471;28;20518;-59
2022/07/23 09:47:19;;;;;;;6.80;1.73;;;21.60;99.90;;;;;;4989023;28;20126;-60
2022/07/23 09:50:19;;;;;;;6.97;1.85;;;21.70;99.90;;;;;;4987422;28;20046;-60
2022/07/23 09:52:48;;;;;;;3.85;1.80;;;21.60;99.90;;;;;;4971136;28;20502;-60
2022/07/23 09:55:14;;;;;;;4.28;1.90;;;21.80;99.90;;;;;;4987916;28;20026;-62
2022/07/23 09:57:53;;;;;;;3.40;1.60;;;21.80;99.90;;;;;;4991197;28;20037;-61
2022/07/23 10:00:19;;;;;;;4.85;1.70;;;21.80;99.90;;;;;;4987640;28;20030;-60
2022/07/23 10:02:46;;;;;;;5.10;1.30;;;21.70;99.90;;;;;;4990202;28;20058;-61
2022/07/23 10:05:12;;;;;;;2.70;1.60;;;21.70;99.90;;;;;;4999606;28;20034;-62
2022/07/23 10:07:39;;;;;;;4.82;1.70;;;21.70;99.90;;;;;;4996545;28;20040;-62
2022/07/23 10:10:06;;;;;;;5.45;1.70;;;21.60;99.90;;;;;;4996826;28;20084;-60
2022/07/23 10:12:50;;;;;;;4.55;2.03;;;21.60;99.90;;;;;;4992337;28;20038;-60
2022/07/23 10:15:16;;;;;;;2.70;1.33;;;21.80;99.90;;;;;;4994036;28;20035;-60
2022/07/23 10:17:41;;;;;;;5.15;1.70;;;21.90;99.90;;;;;;4994710;28;20122;-60
2022/07/23 10:20:08;;;;;;;7.65;1.55;;;21.80;99.90;;;;;;4994557;28;20023;-60
2022/07/23 10:22:51;;;;;;;1.98;1.38;;;21.70;99.90;;;;;;4998403;28;20026;-60
2022/07/23 10:25:20;;;;;;;3.15;1.30;;;21.60;99.90;;;;;;4994658;28;20035;-61
2022/07/23 10:28:03;;;;;;;4.93;1.35;;;21.70;99.90;;;;;;4994042;28;20500;-61
2022/07/23 10:30:35;;;;;;;3.80;1.40;;;21.90;99.90;;;;;;5004990;28;20037;-60
2022/07/23 10:33:29;;;;;;;6.07;1.35;;;22.00;99.90;;;;;;4999754;28;20034;-60
2022/07/23 10:36:11;;;;;;;3.85;2.30;;;22.00;99.90;;;;;;4997749;28;20494;-60
2022/07/23 10:38:52;;;;;;;4.18;1.20;;;22.20;99.90;;;;;;4980849;28;20038;-61
2022/07/23 10:41:32;;;;;;;2.20;1.10;;;22.20;99.90;;;;;;4999416;28;20041;-61
2022/07/23 10:44:25;;;;;;;2.58;1.13;;;22.00;99.90;;;;;;4991756;28;20054;-61
2022/07/23 10:49:37;;;;;;;2.88;1.33;;;22.30;99.90;;;;;;4995811;28;20026;-61
2022/07/23 10:52:23;;;;;;;2.40;1.23;;;22.30;99.90;;;;;;4995171;28;20042;-60
2022/07/23 10:54:51;;;;;;;5.95;1.60;;;22.60;99.90;;;;;;4990193;28;20041;-61
2022/07/23 10:57:20;;;;;;;4.88;1.58;;;22.70;99.90;;;;;;4996989;28;20082;-61
2022/07/23 11:00:07;;;;;;;3.83;1.10;;;22.70;99.90;;;;;;4999981;28;20022;-62
2022/07/23 11:02:33;;;;;;;2.00;1.10;;;22.40;99.90;;;;;;4981942;28;20030;-61
2022/07/23 11:05:08;;;;;;;3.67;1.58;;;22.40;99.90;;;;;;4990536;28;20113;-60
2022/07/23 11:07:34;;;;;;;1.85;1.15;;;22.30;99.90;;;;;;4993198;28;20033;-61
2022/07/23 11:10:01;;;;;;;6.28;1.25;;;22.60;99.90;;;;;;4992018;28;20505;-60
2022/07/23 11:12:30;;;;;;;7.10;1.45;;;22.80;99.90;;;;;;4994609;28;20461;-62
2022/07/23 11:14:58;;;;;;;6.18;2.10;;;22.90;99.90;;;;;;4991947;28;20541;-60
2022/07/23 11:17:25;;;;;;;6.78;2.28;;;23.30;99.90;;;;;;4996811;28;20064;-60
2022/07/23 11:20:09;;;;;;;8.07;1.48;;;23.60;99.90;;;;;;4993537;28;20031;-61
2022/07/23 11:22:36;;;;;;;6.80;1.42;;;23.70;99.90;;;;;;4996751;28;20137;-60
2022/07/23 11:25:02;;;;;;;5.03;1.48;;;23.70;99.90;;;;;;4993662;28;20037;-61
2022/07/23 11:27:41;;;;;;;3.70;1.77;;;23.80;99.50;;;;;;4998422;28;20370;-61
2022/07/23 11:30:08;;;;;;;4.00;1.38;;;24.00;98.80;;;;;;4995111;28;20022;-61
2022/07/23 11:32:40;;;;;;;4.63;1.67;;;24.10;99.20;;;;;;5000636;28;20085;-60
2022/07/23 11:35:25;;;;;;;4.63;1.77;;;24.10;97.60;;;;;;4995992;28;20038;-61
2022/07/23 11:37:58;;;;;;;8.70;1.52;;;24.60;97.50;;;;;;4996542;28;20072;-60
2022/07/23 11:40:25;;;;;;;3.15;1.25;;;24.50;97.90;;;;;;4993005;28;20026;-59
2022/07/23 11:43:00;;;;;;;4.68;2.25;;;25.10;97.00;;;;;;4993331;28;20077;-60
2022/07/23 11:45:31;;;;;;;3.60;1.40;;;25.20;97.80;;;;;;4986381;28;20034;-60
2022/07/23 11:47:57;;;;;;;;;;;25.40;96.90;;;;;;5004650;28;20030;-60
2022/07/23 11:50:25;;;;;;;2.80;1.52;;;25.00;96.50;;;;;;4998301;28;20273;-60
2022/07/23 11:52:51;;;;;;;4.47;1.30;;;25.30;96.60;;;;;;4987275;28;20108;-60
2022/07/23 11:55:17;;;;;;;4.45;1.73;;;25.20;95.90;;;;;;4991127;28;20032;-61
2022/07/23 11:57:44;;;;;;;4.55;1.42;;;25.30;95.50;;;;;;4996155;28;20455;-60
2022/07/23 12:00:18;;;;;;;5.15;1.50;;;25.40;95.10;;;;;;5000241;28;20105;-60
2022/07/23 12:02:47;;;;;;;6.10;1.83;;;24.90;96.10;;;;;;4987902;28;20054;-61
2022/07/23 12:05:15;;;;;;;1.80;1.10;;;25.10;96.60;;;;;;5001386;28;20062;-61
2022/07/23 12:07:49;;;;;;;5.93;1.27;;;25.00;95.90;;;;;;4991918;28;20041;-61
2022/07/23 12:10:17;;;;;;;4.55;1.48;;;25.00;95.00;;;;;;4983461;28;20022;-61
2022/07/23 12:12:56;;;;;;;1.55;1.02;;;25.50;93.80;;;;;;5002979;28;23502;-61
2022/07/23 12:15:24;;;;;;;2.30;1.00;;;25.70;89.40;;;;;;5007974;28;20479;-61
2022/07/23 12:17:52;;;;;;;3.08;1.27;;;25.70;92.40;;;;;;4991810;28;20026;-61
2022/07/23 12:20:24;;;;;;;3.92;1.40;;;25.60;90.90;;;;;;4995342;28;20022;-62
2022/07/23 12:22:53;;;;;;;5.03;1.58;;;25.60;92.80;;;;;;4996707;28;20113;-60
2022/07/23 12:25:24;;;;;;;3.33;1.08;;;25.60;92.80;;;;;;5001431;28;20120;-61
2022/07/23 12:28:03;;;;;;;2.42;1.25;;;26.00;92.00;;;;;;4993344;28;20030;-60
2022/07/23 12:30:37;;;;;;;7.55;2.58;;;26.20;90.40;;;;;;5000309;28;20104;-61
2022/07/23 12:33:03;;;;;;;4.70;1.60;;;26.00;91.70;;;;;;5002495;28;20046;-61
2022/07/23 12:35:41;;;;;;;5.63;1.38;;;26.20;91.00;;;;;;5008534;28;20492;-61
2022/07/23 12:38:12;;;;;;;3.75;1.55;;;26.40;87.70;;;;;;5001911;28;20482;-61
2022/07/23 12:40:47;;;;;;;2.70;1.10;;;26.50;87.20;;;;;;4992410;28;20026;-60
2022/07/23 12:43:28;;;;;;;2.88;1.27;;;26.30;85.20;;;;;;4993255;28;20568;-61
2022/07/23 12:46:06;;;;;;;2.25;1.20;;;26.10;86.10;;;;;;5006199;28;20367;-62
2022/07/23 12:48:53;;;;;;;2.38;0.98;;;26.10;88.00;;;;;;5001139;28;20026;-62
2022/07/23 12:51:19;;;;;;;1.58;1.10;;;26.30;88.00;;;;;;5002806;28;20516;-65
2022/07/23 12:53:50;;;;;;;5.05;1.00;;;26.40;81.80;;;;;;4994986;28;20042;-61
2022/07/23 12:56:28;;;;;;;4.73;1.60;;;26.70;79.40;;;;;;4999054;28;20034;-62
2022/07/23 12:58:57;;;;;;;4.07;1.10;;;26.50;82.80;;;;;;4992679;28;20300;-62